Time;durP1;ratioP1;P1;durP2;ratioP2;P2;SDS_P1;SDS_P2;PMS_P1;PMS_P2;Temp;Humidity;BMP_temperature;BMP_pressure;BME280_temperature;BME280_humidity;BME280_pressure;Samples;Min_cycle;Max_cycle;Signal;HPM_P1;HPM_P2
2022/05/17 00:00:23;;;;;;;13.80;3.40;;;15.00;99.90;;;;;;5052641;28;20025;-63
2022/05/17 00:02:49;;;;;;;22.50;4.60;;;15.00;99.90;;;;;;5052184;28;20021;-66
2022/05/17 00:05:14;;;;;;;13.82;4.18;;;15.00;99.90;;;;;;5052326;28;20032;-61
2022/05/17 00:07:40;;;;;;;15.77;3.47;;;15.00;99.90;;;;;;5052233;28;20453;-67
2022/05/17 00:10:06;;;;;;;18.30;3.65;;;15.00;99.90;;;;;;5052001;28;20472;-64
2022/05/17 00:12:32;;;;;;;20.70;4.15;;;15.00;99.90;;;;;;5051881;28;20036;-63
2022/05/17 00:14:58;;;;;;;15.27;3.40;;;15.00;99.90;;;;;;5052264;28;20021;-64
2022/05/17 00:17:23;;;;;;;20.75;3.95;;;15.00;99.90;;;;;;5052037;28;20021;-65
2022/05/17 00:19:49;;;;;;;19.17;4.13;;;14.90;99.90;;;;;;5052255;28;20043;-67
2022/05/17 00:22:14;;;;;;;16.33;3.78;;;14.90;99.90;;;;;;5051893;28;20028;-62
2022/05/17 00:24:40;;;;;;;11.55;3.25;;;14.90;99.90;;;;;;5051897;28;20416;-61
2022/05/17 00:27:06;;;;;;;18.65;4.30;;;14.90;99.90;;;;;;5050254;28;20036;-65
2022/05/17 00:29:32;;;;;;;15.90;3.40;;;14.90;99.90;;;;;;5052139;28;20467;-61
2022/05/17 00:31:57;;;;;;;16.35;3.38;;;14.80;99.90;;;;;;5052296;28;20021;-62
2022/05/17 00:34:24;;;;;;;20.35;3.97;;;14.80;99.90;;;;;;5051911;28;20021;-66
2022/05/17 00:36:49;;;;;;;14.88;3.60;;;14.80;99.90;;;;;;5052337;28;20039;-61
2022/05/17 00:39:16;;;;;;;17.00;3.95;;;14.80;99.90;;;;;;5055811;28;20466;-63
2022/05/17 00:41:42;;;;;;;15.07;4.10;;;14.80;99.90;;;;;;5055723;28;20150;-64
2022/05/17 00:47:14;;;;;;;13.85;4.47;;;14.70;99.90;;;;;;5053165;28;20080;-65
2022/05/17 00:49:48;;;;;;;15.02;3.58;;;14.70;99.90;;;;;;5055598;28;20471;-65
2022/05/17 00:52:22;;;;;;;16.27;4.00;;;14.70;99.90;;;;;;5055339;28;20040;-63
2022/05/17 00:54:49;;;;;;;14.80;4.00;;;14.70;99.90;;;;;;5055979;28;20110;-63
2022/05/17 00:57:21;;;;;;;19.27;4.13;;;14.70;99.90;;;;;;5055670;28;20029;-62
2022/05/17 00:59:48;;;;;;;19.02;3.88;;;14.70;99.90;;;;;;5055234;28;20037;-63
2022/05/17 01:02:14;;;;;;;15.43;3.85;;;14.60;99.90;;;;;;5055461;28;20035;-61
2022/05/17 01:04:40;;;;;;;19.73;4.50;;;14.60;99.90;;;;;;5055664;28;20029;-62
2022/05/17 01:07:13;;;;;;;16.58;3.72;;;14.60;99.90;;;;;;5055412;28;20029;-64
2022/05/17 01:09:39;;;;;;;17.65;3.97;;;14.60;99.90;;;;;;5055584;28;20017;-63
2022/05/17 01:12:05;;;;;;;20.45;4.03;;;14.60;99.90;;;;;;5054216;28;20024;-63
2022/05/17 01:17:14;;;;;;;13.85;3.72;;;14.60;99.90;;;;;;5055169;28;20070;-65
2022/05/17 01:19:42;;;;;;;14.40;3.83;;;14.60;99.90;;;;;;5053963;28;20037;-62
2022/05/17 01:22:07;;;;;;;12.80;3.55;;;14.60;99.90;;;;;;5053937;28;20110;-62
2022/05/17 01:24:33;;;;;;;16.65;4.03;;;14.60;99.90;;;;;;5055372;28;20441;-65
2022/05/17 01:27:08;;;;;;;16.20;4.28;;;14.60;99.90;;;;;;5055029;28;20071;-64
2022/05/17 01:29:42;;;;;;;16.77;4.07;;;14.60;99.90;;;;;;5054721;28;20037;-67
2022/05/17 01:32:10;;;;;;;13.60;4.43;;;14.60;99.90;;;;;;5054130;28;20029;-63
2022/05/17 01:34:37;;;;;;;13.38;3.42;;;14.60;99.90;;;;;;5054134;28;20121;-62
2022/05/17 01:37:04;;;;;;;14.73;3.53;;;14.50;99.90;;;;;;5053908;28;20017;-61
2022/05/17 01:39:31;;;;;;;13.52;3.60;;;14.50;99.90;;;;;;5053954;28;20457;-64
2022/05/17 01:41:57;;;;;;;18.45;4.57;;;14.50;99.90;;;;;;5053856;28;20027;-63
2022/05/17 01:44:23;;;;;;;18.25;3.80;;;14.50;99.90;;;;;;5054011;28;20025;-66
2022/05/17 01:46:49;;;;;;;13.10;3.55;;;14.50;99.90;;;;;;5052201;28;20032;-63
2022/05/17 01:49:15;;;;;;;13.40;3.80;;;14.50;99.90;;;;;;5053969;28;20095;-67
2022/05/17 01:51:41;;;;;;;15.27;3.83;;;14.50;99.90;;;;;;5053535;28;20112;-64
2022/05/17 01:54:06;;;;;;;13.23;3.30;;;14.40;99.90;;;;;;5053585;28;20086;-63
2022/05/17 01:56:33;;;;;;;17.27;4.68;;;14.50;99.90;;;;;;5053335;28;20025;-62
2022/05/17 01:58:59;;;;;;;15.07;4.45;;;14.50;99.90;;;;;;5053713;28;20119;-64
2022/05/17 02:01:25;;;;;;;13.93;4.32;;;14.40;99.90;;;;;;5053827;28;20747;-63
2022/05/17 02:03:51;;;;;;;19.50;4.25;;;14.40;99.90;;;;;;5052489;28;20024;-62
2022/05/17 02:06:17;;;;;;;14.25;3.88;;;14.40;99.90;;;;;;5053459;28;20029;-64
2022/05/17 02:08:43;;;;;;;11.25;3.72;;;14.40;99.90;;;;;;5053493;28;20381;-62
2022/05/17 02:11:09;;;;;;;20.95;4.63;;;14.40;99.90;;;;;;5053263;28;20025;-62
2022/05/17 02:13:35;;;;;;;17.77;4.57;;;14.30;99.90;;;;;;5053615;28;20025;-62
2022/05/17 02:16:04;;;;;;;15.93;4.22;;;14.30;99.90;;;;;;5052316;28;20017;-62
2022/05/17 02:18:29;;;;;;;17.33;5.10;;;14.30;99.90;;;;;;5053124;28;20033;-65
2022/05/17 02:20:55;;;;;;;18.88;4.15;;;14.30;99.90;;;;;;5052066;28;20416;-67
2022/05/17 02:23:21;;;;;;;14.55;3.95;;;14.30;99.90;;;;;;5053415;28;20079;-63
2022/05/17 02:25:47;;;;;;;15.38;4.10;;;14.30;99.90;;;;;;5053045;28;20055;-63
2022/05/17 02:28:13;;;;;;;15.32;4.68;;;14.30;99.90;;;;;;5051844;28;20135;-63
2022/05/17 02:30:42;;;;;;;14.25;4.40;;;14.30;99.90;;;;;;5016639;28;1061648;-62
2022/05/17 02:33:08;;;;;;;20.42;4.03;;;14.30;99.90;;;;;;5054208;28;20037;-63
2022/05/17 02:35:34;;;;;;;17.52;4.82;;;14.40;99.90;;;;;;5054057;28;20033;-63
2022/05/17 02:38:00;;;;;;;17.23;5.15;;;14.40;99.90;;;;;;5054218;28;20021;-66
2022/05/17 02:40:26;;;;;;;19.90;5.55;;;14.40;99.90;;;;;;5053605;28;20389;-63
2022/05/17 02:42:51;;;;;;;19.50;5.38;;;14.40;99.90;;;;;;5054494;28;20032;-67
2022/05/17 02:45:17;;;;;;;16.13;4.40;;;14.40;99.90;;;;;;5054362;28;20103;-61
2022/05/17 02:47:42;;;;;;;18.67;4.55;;;14.40;99.90;;;;;;5053781;28;20029;-63
2022/05/17 02:50:09;;;;;;;17.77;3.97;;;14.40;99.90;;;;;;5053780;28;20500;-65
2022/05/17 02:52:35;;;;;;;14.88;4.35;;;14.40;99.90;;;;;;5053742;28;20021;-62
2022/05/17 02:55:01;;;;;;;9.23;4.15;;;14.50;99.90;;;;;;5053721;28;20028;-63
2022/05/17 02:57:26;;;;;;;17.95;4.53;;;14.50;99.90;;;;;;5053890;28;20029;-63
2022/05/17 02:59:52;;;;;;;17.70;4.03;;;14.50;99.90;;;;;;5052922;28;20463;-62
2022/05/17 03:02:17;;;;;;;18.75;4.60;;;14.50;99.90;;;;;;5053841;28;20457;-65
2022/05/17 03:04:44;;;;;;;15.65;4.13;;;14.50;99.90;;;;;;5053735;28;20032;-65
2022/05/17 03:07:09;;;;;;;23.58;4.47;;;14.50;99.90;;;;;;5053444;28;20107;-62
2022/05/17 03:09:35;;;;;;;18.27;4.50;;;14.50;99.90;;;;;;5053727;28;20100;-66
2022/05/17 03:12:02;;;;;;;18.85;5.72;;;14.60;99.90;;;;;;5052168;28;20027;-64
2022/05/17 03:14:28;;;;;;;16.73;6.15;;;14.60;99.90;;;;;;5053236;28;20449;-63
2022/05/17 03:16:54;;;;;;;16.80;4.72;;;14.60;99.90;;;;;;5053213;28;20029;-67
2022/05/17 03:19:20;;;;;;;15.55;3.80;;;14.60;99.90;;;;;;5053000;28;20029;-65
2022/05/17 03:21:47;;;;;;;19.15;5.68;;;14.70;99.90;;;;;;5053462;28;20056;-62
2022/05/17 03:24:13;;;;;;;20.50;5.13;;;14.70;99.90;;;;;;5052915;28;20033;-67
2022/05/17 03:26:38;;;;;;;14.98;4.18;;;14.80;99.90;;;;;;5053037;28;20031;-62
2022/05/17 03:29:04;;;;;;;18.90;5.15;;;14.80;99.90;;;;;;5052755;28;20052;-63
2022/05/17 03:31:30;;;;;;;17.77;4.13;;;14.90;99.90;;;;;;5052639;28;20064;-62
2022/05/17 03:33:55;;;;;;;9.48;3.20;;;14.90;99.90;;;;;;5052815;28;20111;-65
2022/05/17 03:36:21;;;;;;;13.95;5.20;;;14.90;99.90;;;;;;5052388;28;20047;-63
2022/05/17 03:38:47;;;;;;;15.98;3.95;;;15.00;99.90;;;;;;5052223;28;20086;-64
2022/05/17 03:41:12;;;;;;;13.00;3.50;;;15.00;99.90;;;;;;5052829;28;20025;-64
2022/05/17 03:43:38;;;;;;;13.48;4.20;;;15.00;99.90;;;;;;5052733;28;20068;-63
2022/05/17 03:46:07;;;;;;;13.07;3.40;;;15.00;99.90;;;;;;5052693;28;20021;-63
2022/05/17 03:48:32;;;;;;;16.63;3.33;;;15.10;99.90;;;;;;5052247;28;20365;-63
2022/05/17 03:50:58;;;;;;;21.38;4.72;;;15.10;99.90;;;;;;5052162;28;20040;-62
2022/05/17 03:53:24;;;;;;;13.90;3.47;;;15.20;99.90;;;;;;5050600;28;20030;-65
2022/05/17 03:55:49;;;;;;;15.60;4.40;;;15.20;99.90;;;;;;5052223;28;20102;-67
2022/05/17 03:58:15;;;;;;;15.80;3.92;;;15.20;99.90;;;;;;5051911;28;20025;-65
2022/05/17 04:00:41;;;;;;;13.90;4.07;;;15.30;99.90;;;;;;5052201;28;20025;-62
2022/05/17 04:03:07;;;;;;;15.63;4.85;;;15.30;99.90;;;;;;5052619;28;20031;-65
2022/05/17 04:05:32;;;;;;;15.52;3.90;;;15.30;99.90;;;;;;5052000;28;20516;-63
2022/05/17 04:07:58;;;;;;;14.25;4.28;;;15.40;99.90;;;;;;5051940;28;20039;-62
2022/05/17 04:10:23;;;;;;;12.55;3.55;;;15.40;99.90;;;;;;5051925;28;20461;-66
2022/05/17 04:12:49;;;;;;;13.20;3.20;;;15.50;99.90;;;;;;5052040;28;20119;-61
2022/05/17 04:15:22;;;;;;;8.50;2.92;;;15.50;99.90;;;;;;5052056;28;20031;-63
2022/05/17 04:17:49;;;;;;;8.20;2.90;;;15.50;99.90;;;;;;5052168;28;20139;-62
2022/05/17 04:20:16;;;;;;;12.70;3.15;;;15.60;99.90;;;;;;5051777;28;20094;-62
2022/05/17 04:22:46;;;;;;;9.05;2.70;;;15.60;99.90;;;;;;5052167;28;20044;-62
2022/05/17 04:25:16;;;;;;;12.32;3.42;;;15.60;99.90;;;;;;5051855;28;20029;-65
2022/05/17 04:27:43;;;;;;;16.52;3.67;;;15.60;99.90;;;;;;5051731;28;20030;-62
2022/05/17 04:30:09;;;;;;;9.20;2.63;;;15.70;99.90;;;;;;5051792;28;20048;-66
2022/05/17 04:32:35;;;;;;;14.10;3.10;;;15.70;99.90;;;;;;5051655;28;20025;-64
2022/05/17 04:35:00;;;;;;;10.18;3.20;;;15.70;99.90;;;;;;5050028;28;20032;-64
2022/05/17 04:37:27;;;;;;;13.77;3.10;;;15.80;99.90;;;;;;5051849;28;20017;-64
2022/05/17 04:39:53;;;;;;;12.20;2.50;;;15.80;99.90;;;;;;5051746;28;20041;-63
2022/05/17 04:42:18;;;;;;;9.13;3.25;;;15.80;99.90;;;;;;5052044;28;20374;-65
2022/05/17 04:44:44;;;;;;;15.07;3.42;;;15.80;99.90;;;;;;5052050;28;20029;-62
2022/05/17 04:47:10;;;;;;;9.07;2.50;;;15.90;99.90;;;;;;5051975;28;20021;-64
2022/05/17 04:49:36;;;;;;;11.32;2.95;;;15.90;99.90;;;;;;5051159;28;20031;-61
2022/05/17 04:52:02;;;;;;;10.10;2.58;;;16.00;99.90;;;;;;5051572;28;20445;-65
2022/05/17 04:54:27;;;;;;;15.18;3.75;;;16.00;99.90;;;;;;5051422;28;20021;-63
2022/05/17 04:56:53;;;;;;;17.00;4.55;;;16.10;99.90;;;;;;5051653;28;20135;-62
2022/05/17 04:59:19;;;;;;;13.68;3.42;;;16.10;99.90;;;;;;5051739;28;20433;-62
2022/05/17 05:01:45;;;;;;;18.63;3.65;;;16.10;99.90;;;;;;5051930;28;20025;-62
2022/05/17 05:04:11;;;;;;;13.68;3.80;;;16.20;99.90;;;;;;5051713;28;20032;-65
2022/05/17 05:06:37;;;;;;;12.63;3.42;;;16.20;99.90;;;;;;5052032;28;20018;-63
2022/05/17 05:09:03;;;;;;;11.82;3.30;;;16.30;99.90;;;;;;5051744;28;20056;-62
2022/05/17 05:11:28;;;;;;;10.18;2.38;;;16.30;99.90;;;;;;5051855;28;20029;-65
2022/05/17 05:13:54;;;;;;;8.82;2.92;;;16.40;99.90;;;;;;5051682;28;20072;-63
2022/05/17 05:16:20;;;;;;;11.73;2.83;;;16.50;99.90;;;;;;5051557;28;20422;-63
2022/05/17 05:18:46;;;;;;;11.23;3.00;;;16.40;99.90;;;;;;5051070;28;20361;-63
2022/05/17 05:21:14;;;;;;;12.88;2.97;;;16.40;99.90;;;;;;5051560;28;20033;-63
2022/05/17 05:23:41;;;;;;;16.35;3.95;;;16.50;99.90;;;;;;5054109;28;20461;-63
2022/05/17 05:26:08;;;;;;;11.88;3.45;;;16.50;99.90;;;;;;5055103;28;20029;-65
2022/05/17 05:28:35;;;;;;;20.00;5.85;;;16.60;99.90;;;;;;5055176;28;20029;-68
2022/05/17 05:31:01;;;;;;;9.77;3.28;;;16.60;99.90;;;;;;5055366;28;20392;-63
2022/05/17 05:33:29;;;;;;;10.15;3.00;;;16.70;99.90;;;;;;5054749;28;20017;-63
2022/05/17 05:35:54;;;;;;;12.15;3.20;;;16.70;99.90;;;;;;5055313;28;20017;-63
2022/05/17 05:38:20;;;;;;;17.58;3.70;;;16.80;99.90;;;;;;5053929;28;20032;-64
2022/05/17 05:40:46;;;;;;;17.33;3.05;;;16.90;99.90;;;;;;5055207;28;20031;-65
2022/05/17 05:43:12;;;;;;;10.80;2.70;;;17.00;99.90;;;;;;5054960;28;20461;-67
2022/05/17 05:45:38;;;;;;;8.73;3.05;;;17.00;99.90;;;;;;5054594;28;20457;-63
2022/05/17 05:48:04;;;;;;;12.35;3.67;;;17.00;99.90;;;;;;5054734;28;20067;-66
2022/05/17 05:50:30;;;;;;;13.10;2.85;;;17.10;99.90;;;;;;5055042;28;20029;-65
2022/05/17 05:53:07;;;;;;;11.77;3.42;;;17.10;99.90;;;;;;5054633;28;20028;-63
2022/05/17 05:55:34;;;;;;;11.40;3.10;;;17.10;99.90;;;;;;5054573;28;20464;-61
2022/05/17 05:58:00;;;;;;;11.65;3.30;;;17.20;99.90;;;;;;5053289;28;20025;-66
2022/05/17 06:00:27;;;;;;;13.40;3.97;;;17.40;99.90;;;;;;5054106;28;20131;-62
2022/05/17 06:02:54;;;;;;;10.20;2.70;;;17.50;99.90;;;;;;5054376;28;20013;-63
2022/05/17 06:05:21;;;;;;;17.23;4.78;;;17.80;99.90;;;;;;5054437;28;20822;-66
2022/05/17 06:07:49;;;;;;;13.32;4.47;;;18.00;99.90;;;;;;5054551;28;20032;-63
2022/05/17 06:10:16;;;;;;;10.68;3.10;;;18.40;99.90;;;;;;5053929;28;20040;-66
2022/05/17 06:12:41;;;;;;;12.90;4.28;;;18.80;99.90;;;;;;5053949;28;20025;-65
2022/05/17 06:15:08;;;;;;;11.25;2.78;;;19.00;99.90;;;;;;5053721;28;20064;-62
2022/05/17 06:17:34;;;;;;;13.00;3.72;;;19.20;99.90;;;;;;5054454;28;20049;-64
2022/05/17 06:20:00;;;;;;;9.73;2.22;;;19.30;99.90;;;;;;5052760;28;20072;-64
2022/05/17 06:22:27;;;;;;;15.40;3.22;;;19.30;99.90;;;;;;5054978;28;20029;-65
2022/05/17 06:24:53;;;;;;;15.20;2.90;;;19.30;99.90;;;;;;5054512;28;20104;-63
2022/05/17 06:27:19;;;;;;;9.57;2.75;;;19.30;99.90;;;;;;5054334;28;20108;-66
2022/05/17 06:29:44;;;;;;;18.58;3.75;;;19.30;99.90;;;;;;5052584;28;20136;-66
2022/05/17 06:32:15;;;;;;;14.27;3.30;;;19.30;99.90;;;;;;5053110;28;20029;-66
2022/05/17 06:34:41;;;;;;;14.05;3.10;;;19.30;99.90;;;;;;5053211;28;20021;-66
2022/05/17 06:37:07;;;;;;;10.88;2.65;;;19.20;99.90;;;;;;5054277;28;20017;-63
2022/05/17 06:39:33;;;;;;;13.02;2.80;;;19.10;99.90;;;;;;5053873;28;20495;-63
2022/05/17 06:41:59;;;;;;;9.90;2.85;;;19.10;99.90;;;;;;5053818;28;20098;-62
2022/05/17 06:44:25;;;;;;;8.98;1.98;;;19.10;99.90;;;;;;5054323;28;20159;-65
2022/05/17 06:46:52;;;;;;;11.80;2.55;;;19.20;99.90;;;;;;5054321;28;20025;-64
2022/05/17 06:49:17;;;;;;;9.50;2.30;;;19.10;99.90;;;;;;5054344;28;20017;-62
2022/05/17 06:51:43;;;;;;;11.88;3.03;;;19.10;99.90;;;;;;5053999;28;20401;-64
2022/05/17 06:54:09;;;;;;;7.70;2.45;;;19.10;99.90;;;;;;5054076;28;20020;-62
2022/05/17 06:56:35;;;;;;;7.28;2.10;;;19.00;99.90;;;;;;5053469;28;20021;-63
2022/05/17 06:59:01;;;;;;;10.45;2.35;;;19.00;99.90;;;;;;5053649;28;20041;-62
2022/05/17 07:01:27;;;;;;;10.90;2.20;;;18.90;99.90;;;;;;5052235;28;20051;-62
2022/05/17 07:03:53;;;;;;;9.30;2.67;;;18.90;99.90;;;;;;5053467;28;20449;-63
2022/05/17 07:06:20;;;;;;;6.95;2.00;;;19.00;99.90;;;;;;5053720;28;20066;-63
2022/05/17 07:08:45;;;;;;;7.60;2.20;;;19.20;99.90;;;;;;5053469;28;20035;-64
2022/05/17 07:13:55;;;;;;;8.43;2.10;;;19.60;99.90;;;;;;5053830;28;20105;-62
2022/05/17 07:16:22;;;;;;;7.85;2.22;;;20.00;99.90;;;;;;5053696;28;20052;-65
2022/05/17 07:18:47;;;;;;;6.32;1.80;;;20.30;99.90;;;;;;5053292;28;20350;-65
2022/05/17 07:21:14;;;;;;;9.15;2.40;;;20.60;99.90;;;;;;5053020;28;20028;-62
2022/05/17 07:23:40;;;;;;;7.75;1.90;;;21.00;99.90;;;;;;5052880;28;20021;-63
2022/05/17 07:26:08;;;;;;;6.85;2.25;;;21.20;99.90;;;;;;5053328;28;20468;-62
2022/05/17 07:28:42;;;;;;;6.38;1.85;;;21.40;99.90;;;;;;5053259;28;20450;-65
2022/05/17 07:31:09;;;;;;;9.00;2.15;;;21.40;99.90;;;;;;5052849;28;20037;-65
2022/05/17 07:33:35;;;;;;;8.80;2.05;;;21.40;99.90;;;;;;5052802;28;20099;-62
2022/05/17 07:36:01;;;;;;;7.20;1.90;;;21.50;99.90;;;;;;5052819;28;20124;-63
2022/05/17 07:38:27;;;;;;;9.80;2.03;;;21.40;99.90;;;;;;5052833;28;20043;-65
2022/05/17 07:40:53;;;;;;;7.60;2.25;;;21.40;99.90;;;;;;5053312;28;20415;-64
2022/05/17 07:43:19;;;;;;;5.43;2.20;;;21.30;99.90;;;;;;5052766;28;20025;-62
2022/05/17 07:45:45;;;;;;;4.57;1.77;;;21.20;99.90;;;;;;5052612;28;20017;-62
2022/05/17 07:48:11;;;;;;;4.63;1.65;;;21.20;99.90;;;;;;5053177;28;20468;-62
2022/05/17 07:50:37;;;;;;;7.28;1.70;;;21.10;99.90;;;;;;5052572;28;20024;-63
2022/05/17 07:53:08;;;;;;;5.90;2.20;;;21.00;99.90;;;;;;5051426;28;20425;-63
2022/05/17 07:55:35;;;;;;;5.88;1.80;;;21.00;99.90;;;;;;5052876;28;20021;-62
2022/05/17 07:58:02;;;;;;;5.93;2.00;;;21.00;99.90;;;;;;5050470;28;20024;-62
2022/05/17 08:00:27;;;;;;;8.25;1.85;;;21.10;99.90;;;;;;5052462;28;20037;-62
2022/05/17 08:02:56;;;;;;;4.80;1.83;;;21.20;99.90;;;;;;5052671;28;20055;-62
2022/05/17 08:05:22;;;;;;;6.05;2.03;;;21.40;99.90;;;;;;5052222;28;20025;-62
2022/05/17 08:07:48;;;;;;;6.97;2.50;;;21.40;99.90;;;;;;5052740;28;20024;-62
2022/05/17 08:10:14;;;;;;;6.35;1.90;;;21.60;99.90;;;;;;5052823;28;20096;-62
2022/05/17 08:12:39;;;;;;;5.57;1.88;;;21.80;99.90;;;;;;5051311;28;20442;-62
2022/05/17 08:15:06;;;;;;;4.40;1.80;;;21.90;99.90;;;;;;5052189;28;20108;-64
2022/05/17 08:17:32;;;;;;;11.15;2.38;;;22.00;99.90;;;;;;5052472;28;20052;-66
2022/05/17 08:19:57;;;;;;;9.55;2.17;;;22.00;99.90;;;;;;5051952;28;20075;-64
2022/05/17 08:22:23;;;;;;;5.43;1.95;;;22.00;99.90;;;;;;5050105;28;20025;-66
2022/05/17 08:27:36;;;;;;;5.30;1.55;;;21.90;99.90;;;;;;5052387;28;20174;-66
2022/05/17 08:30:08;;;;;;;6.38;1.60;;;21.90;99.90;;;;;;5052279;28;20095;-64
2022/05/17 08:35:19;;;;;;;69.43;10.07;;;22.00;99.90;;;;;;5052461;28;20040;-63
2022/05/17 08:37:45;;;;;;;9.07;1.63;;;22.00;99.90;;;;;;5052399;28;20047;-66
2022/05/17 08:40:20;;;;;;;6.43;2.22;;;22.00;99.90;;;;;;5051796;28;20041;-63
2022/05/17 08:43:06;;;;;;;35.78;5.47;;;22.00;99.90;;;;;;5051671;28;20064;-62
2022/05/17 08:45:40;;;;;;;719.60;103.28;;;22.00;99.90;;;;;;5052224;28;20033;-62
2022/05/17 08:48:15;;;;;;;5.70;1.80;;;22.00;99.90;;;;;;5051605;28;20031;-62
2022/05/17 08:50:40;;;;;;;5.95;1.70;;;22.00;99.90;;;;;;5051834;28;20020;-62
2022/05/17 08:53:12;;;;;;;9.55;1.83;;;22.00;99.90;;;;;;5050229;28;20017;-67
2022/05/17 08:55:41;;;;;;;7.68;1.77;;;21.80;99.90;;;;;;5051734;28;20053;-65
2022/05/17 08:58:28;;;;;;;10.15;1.92;;;21.60;99.90;;;;;;5052468;28;20021;-62
2022/05/17 09:01:21;;;;;;;10.60;2.75;;;21.50;99.90;;;;;;5055785;28;20108;-64
2022/05/17 09:03:59;;;;;;;15.45;2.65;;;21.60;99.90;;;;;;5053836;28;20033;-64
2022/05/17 09:06:43;;;;;;;20.58;3.15;;;21.70;99.90;;;;;;5055631;28;20017;-63
2022/05/17 09:09:25;;;;;;;7.22;1.90;;;21.80;99.90;;;;;;5054362;28;20032;-63
2022/05/17 09:11:57;;;;;;;9.30;2.00;;;22.00;99.90;;;;;;5055523;28;20029;-66
2022/05/17 09:14:27;;;;;;;14.52;2.53;;;22.30;99.90;;;;;;5055534;28;20032;-68
2022/05/17 09:17:13;;;;;;;11.88;2.30;;;22.60;99.90;;;;;;5054481;28;21684;-65
2022/05/17 09:19:38;;;;;;;11.32;2.03;;;22.70;99.90;;;;;;5067975;28;20070;-66
2022/05/17 09:22:06;;;;;;;13.00;2.65;;;22.90;99.90;;;;;;5058135;28;20029;-65
2022/05/17 09:24:44;;;;;;;9.00;2.40;;;23.00;99.90;;;;;;5056288;28;20063;-66
2022/05/17 09:27:38;;;;;;;19.35;2.40;;;23.30;99.90;;;;;;5075124;28;20052;-64
2022/05/17 09:30:30;;;;;;;16.70;3.97;;;23.70;99.90;;;;;;5075146;28;20472;-65
2022/05/17 09:33:08;;;;;;;20.23;3.13;;;24.00;99.10;;;;;;5073945;28;20013;-65
2022/05/17 09:35:58;;;;;;;13.52;2.58;;;24.30;98.70;;;;;;5053300;28;20040;-65
2022/05/17 09:38:24;;;;;;;8.48;2.28;;;24.60;98.20;;;;;;5035147;28;20025;-65
2022/05/17 09:40:51;;;;;;;15.48;3.13;;;24.90;97.60;;;;;;5034134;28;20028;-63
2022/05/17 09:43:34;;;;;;;11.32;2.55;;;25.10;96.50;;;;;;5035100;28;20033;-63
2022/05/17 09:46:15;;;;;;;10.77;1.80;;;25.50;95.50;;;;;;5035174;28;20033;-66
2022/05/17 09:54:43;;;;;;;6.82;1.52;;;27.20;93.50;;;;;;5073799;28;20031;-62
2022/05/17 09:57:16;;;;;;;7.93;1.63;;;28.40;91.60;;;;;;5074998;28;20034;-62
2022/05/17 09:59:43;;;;;;;9.63;2.28;;;29.10;90.40;;;;;;5073006;28;20032;-62
2022/05/17 10:02:30;;;;;;;10.50;2.40;;;29.70;88.90;;;;;;5074169;28;20033;-63
2022/05/17 10:04:57;;;;;;;11.82;2.40;;;30.30;86.00;;;;;;5074233;28;20016;-62
2022/05/17 10:07:27;;;;;;;11.85;2.75;;;30.50;84.60;;;;;;5072757;28;20021;-62
2022/05/17 10:09:53;;;;;;;11.85;2.63;;;30.80;82.70;;;;;;5072638;28;20033;-63
2022/05/17 10:12:36;;;;;;;14.85;2.50;;;31.00;81.60;;;;;;5073011;28;20210;-67
2022/05/17 10:15:12;;;;;;;12.85;2.63;;;31.30;80.10;;;;;;5073116;28;20024;-62
2022/05/17 10:17:49;;;;;;;13.95;2.80;;;31.40;80.20;;;;;;5073009;28;20029;-65
2022/05/17 10:20:26;;;;;;;27.27;4.70;;;31.50;79.20;;;;;;5072922;28;20062;-65
2022/05/17 10:23:00;;;;;;;17.48;2.83;;;31.70;79.30;;;;;;5073821;28;20031;-65
2022/05/17 10:25:27;;;;;;;13.05;2.72;;;32.30;77.20;;;;;;5062782;28;20025;-63
2022/05/17 10:27:55;;;;;;;10.88;2.50;;;32.80;76.70;;;;;;5053883;28;20021;-62
2022/05/17 10:30:46;;;;;;;9.65;2.58;;;33.50;75.50;;;;;;5053562;28;20044;-63
2022/05/17 10:33:19;;;;;;;10.18;2.40;;;34.10;73.90;;;;;;5049760;28;20039;-62
2022/05/17 10:35:58;;;;;;;28.38;5.68;;;34.80;72.10;;;;;;5053719;28;20043;-63
2022/05/17 10:38:32;;;;;;;13.50;3.13;;;35.70;70.60;;;;;;5054531;28;20103;-63
2022/05/17 10:40:57;;;;;;;14.15;2.95;;;36.60;68.40;;;;;;5054247;28;20071;-62
2022/05/17 10:43:31;;;;;;;10.40;2.83;;;37.20;66.70;;;;;;5054326;28;20025;-63
2022/05/17 10:46:17;;;;;;;15.52;3.15;;;37.60;65.10;;;;;;5053710;28;20061;-63
2022/05/17 10:48:59;;;;;;;13.75;2.58;;;37.70;64.10;;;;;;5053487;28;20358;-66
2022/05/17 10:51:32;;;;;;;9.05;2.67;;;38.10;63.00;;;;;;5053860;28;20022;-67
2022/05/17 10:54:33;;;;;;;11.30;3.67;;;38.60;61.70;;;;;;5053760;28;20024;-66
2022/05/17 10:57:40;;;;;;;15.60;3.77;;;39.00;61.40;;;;;;5053935;28;20036;-65
2022/05/17 11:00:18;;;;;;;16.23;3.58;;;39.40;60.20;;;;;;5043154;28;20037;-63
2022/05/17 11:03:20;;;;;;;11.60;2.80;;;39.50;59.40;;;;;;5054094;28;20025;-63
2022/05/17 11:06:24;;;;;;;11.32;3.10;;;39.30;59.80;;;;;;5053791;28;20021;-62
2022/05/17 11:09:39;;;;;;;7.40;3.30;;;39.40;59.40;;;;;;5053794;28;20040;-62
2022/05/17 11:12:10;;;;;;;8.23;3.08;;;39.30;59.30;;;;;;5043982;28;20033;-63
2022/05/17 11:14:41;;;;;;;6.97;2.58;;;39.40;58.90;;;;;;5053655;28;20029;-63
2022/05/17 11:17:34;;;;;;;6.43;2.75;;;39.40;58.40;;;;;;5053008;28;20059;-63
2022/05/17 11:20:15;;;;;;;6.90;2.90;;;39.30;58.50;;;;;;5052569;28;20511;-63
2022/05/17 11:22:44;;;;;;;;;;;39.50;58.40;;;;;;5054006;28;20143;-67
2022/05/17 11:25:19;;;;;;;7.05;3.05;;;39.20;58.00;;;;;;5052970;28;19946;-63
2022/05/17 11:27:50;;;;;;;6.47;3.03;;;39.40;57.90;;;;;;5053526;28;20195;-63
2022/05/17 11:30:30;;;;;;;11.43;2.85;;;39.30;57.10;;;;;;5053320;28;20051;-63
2022/05/17 11:33:22;;;;;;;9.80;3.28;;;39.40;57.20;;;;;;5053615;28;20063;-63
2022/05/17 11:35:51;;;;;;;6.60;2.92;;;39.60;57.50;;;;;;5052519;28;20021;-63
2022/05/17 11:38:20;;;;;;;7.47;2.88;;;39.70;56.60;;;;;;5053523;28;20032;-62
2022/05/17 11:40:52;;;;;;;5.47;2.60;;;39.70;56.60;;;;;;5051417;28;20079;-63
2022/05/17 11:43:40;;;;;;;7.57;2.80;;;40.20;56.30;;;;;;5053107;28;20120;-67
2022/05/17 11:46:24;;;;;;;12.23;3.20;;;40.60;55.90;;;;;;5052596;28;20429;-63
2022/05/17 11:48:55;;;;;;;11.82;3.10;;;39.60;56.10;;;;;;5053018;28;20123;-63
2022/05/17 11:51:21;;;;;;;;;;;38.20;57.20;;;;;;5053258;28;20052;-62
2022/05/17 11:53:49;;;;;;;8.90;3.40;;;37.10;58.00;;;;;;5052635;28;19900;-63
2022/05/17 11:56:24;;;;;;;9.45;3.40;;;36.50;58.90;;;;;;5052512;28;20048;-63
2022/05/17 11:58:52;;;;;;;8.98;3.25;;;36.40;59.40;;;;;;5052348;28;20040;-63
2022/05/17 12:01:30;;;;;;;6.22;3.20;;;36.80;58.80;;;;;;5052978;28;20021;-62
2022/05/17 12:04:26;;;;;;;9.48;3.20;;;37.10;58.80;;;;;;5052582;28;20362;-65
2022/05/17 12:06:52;;;;;;;9.15;3.30;;;37.30;58.50;;;;;;5052470;28;20407;-64
2022/05/17 12:09:20;;;;;;;8.82;3.25;;;37.00;58.50;;;;;;5052244;28;20017;-63
2022/05/17 12:11:52;;;;;;;5.40;3.33;;;36.30;58.40;;;;;;5052570;28;20460;-62
2022/05/17 12:14:29;;;;;;;;;;;35.90;59.30;;;;;;5053130;28;20017;-62
2022/05/17 12:17:05;;;;;;;7.38;3.50;;;35.70;59.40;;;;;;5052514;28;19991;-62
2022/05/17 12:19:34;;;;;;;8.95;3.83;;;35.30;60.20;;;;;;5052179;28;20079;-62
2022/05/17 12:22:12;;;;;;;7.22;3.90;;;34.90;60.70;;;;;;5051202;28;20028;-66
2022/05/17 12:24:52;;;;;;;11.02;3.97;;;34.90;61.10;;;;;;5052131;28;20432;-65
2022/05/17 12:27:25;;;;;;;9.10;3.83;;;34.60;61.10;;;;;;5052904;28;20108;-62
2022/05/17 12:32:38;;;;;;;7.70;4.13;;;33.70;62.60;;;;;;5055465;28;20032;-63
2022/05/17 12:35:07;;;;;;;9.15;4.00;;;33.50;62.90;;;;;;5056711;28;20449;-65
2022/05/17 12:37:40;;;;;;;10.43;4.40;;;33.70;62.70;;;;;;5055101;28;20021;-67
2022/05/17 12:43:06;;;;;;;10.20;4.63;;;34.20;62.40;;;;;;5056384;28;20032;-62
2022/05/17 12:45:40;;;;;;;11.73;5.20;;;34.10;62.30;;;;;;5056435;28;20112;-62
2022/05/17 12:48:23;;;;;;;11.95;4.75;;;33.90;62.70;;;;;;5056107;28;20047;-65
2022/05/17 12:50:56;;;;;;;10.18;4.90;;;33.80;62.80;;;;;;5055792;28;20027;-62
2022/05/17 12:53:25;;;;;;;14.27;5.53;;;33.00;63.80;;;;;;5056510;28;20108;-61
2022/05/17 12:55:57;;;;;;;10.77;4.70;;;32.40;65.10;;;;;;5056234;28;20029;-62
2022/05/17 12:58:22;;;;;;;9.60;4.60;;;32.00;66.00;;;;;;5056132;28;20025;-62
2022/05/17 13:00:56;;;;;;;8.90;5.10;;;31.80;66.40;;;;;;5056030;28;20037;-62
2022/05/17 13:03:25;;;;;;;11.88;5.68;;;31.50;66.50;;;;;;5055460;28;20033;-64
2022/05/17 13:05:54;;;;;;;15.15;7.03;;;31.20;67.30;;;;;;5053888;28;20078;-61
2022/05/17 13:08:22;;;;;;;11.00;5.80;;;31.00;67.60;;;;;;5055792;28;20090;-64
2022/05/17 13:11:00;;;;;;;9.88;5.35;;;30.60;68.30;;;;;;5055896;28;20021;-63
2022/05/17 13:13:27;;;;;;;12.10;5.85;;;30.20;69.20;;;;;;5055965;28;20021;-62
2022/05/17 13:16:18;;;;;;;10.77;6.22;;;29.90;70.10;;;;;;5055572;28;20445;-62
2022/05/17 13:19:00;;;;;;;14.23;5.80;;;29.70;70.80;;;;;;5048394;28;20476;-64